createdAt,value
2023-02-22T00:05:31.560Z,18.52
2023-02-22T00:11:35.539Z,18.13
2023-02-22T00:17:37.364Z,18.92
2023-02-22T00:23:43.291Z,19.05
2023-02-22T00:29:47.121Z,14.60
2023-02-22T00:35:49.320Z,10.73
2023-02-22T00:41:51.145Z,10.32
2023-02-22T00:47:56.190Z,8.55
2023-02-22T00:53:57.958Z,7.78
2023-02-22T00:59:59.830Z,6.60
2023-02-22T01:06:02.399Z,8.10
2023-02-22T01:12:08.067Z,9.95
2023-02-22T01:18:12.612Z,10.88
2023-02-22T01:24:16.436Z,9.90
2023-02-22T01:30:22.565Z,9.65
2023-02-22T01:43:52.990Z,12.43
2023-02-22T01:49:55.009Z,12.55
2023-02-22T01:55:58.044Z,13.18
2023-02-22T02:02:00.487Z,13.23
2023-02-22T02:08:14.631Z,14.32
2023-02-22T02:14:17.976Z,14.45
2023-02-22T02:20:32.716Z,12.50
2023-02-22T02:27:14.569Z,13.27
2023-02-22T02:33:33.518Z,11.05
2023-02-22T02:40:17.828Z,12.35
2023-02-22T02:46:40.074Z,10.43
2023-02-22T02:52:42.175Z,11.55
2023-02-22T02:58:53.193Z,13.35
2023-02-22T03:05:07.295Z,14.52
2023-02-22T03:11:42.913Z,14.27
2023-02-22T03:17:56.420Z,13.05
2023-02-22T03:24:37.518Z,12.82
2023-02-22T03:30:54.812Z,12.43
2023-02-22T03:37:00.828Z,11.73
2023-02-22T03:43:16.827Z,11.35
2023-02-22T03:57:34.806Z,9.80
2023-02-22T04:03:42.288Z,11.10
2023-02-22T04:09:44.337Z,10.20
2023-02-22T04:15:46.819Z,10.48
2023-02-22T04:21:48.734Z,11.02
2023-02-22T04:27:56.551Z,11.38
2023-02-22T04:34:09.979Z,11.90
2023-02-22T04:40:16.747Z,11.40
2023-02-22T04:46:19.879Z,11.07
2023-02-22T04:52:22.446Z,11.63
2023-02-22T04:58:24.276Z,10.75
2023-02-22T05:04:26.136Z,10.65
2023-02-22T05:10:27.940Z,11.68
2023-02-22T05:16:29.819Z,12.88
2023-02-22T05:22:31.550Z,11.32
2023-02-22T05:28:33.592Z,11.10
2023-02-22T05:34:35.369Z,12.93
2023-02-22T05:40:37.089Z,12.10
2023-02-22T05:46:38.962Z,12.80
2023-02-22T05:52:40.915Z,13.18
2023-02-22T05:58:42.640Z,12.82
2023-02-22T06:04:45.645Z,14.63
2023-02-22T06:10:47.358Z,13.85
2023-02-22T06:16:53.621Z,13.77
2023-02-22T06:22:57.666Z,15.00
2023-02-22T06:28:59.436Z,14.43
2023-02-22T06:35:01.232Z,14.20
2023-02-22T06:41:02.958Z,14.18
2023-02-22T06:47:04.773Z,14.93
2023-02-22T06:53:06.588Z,15.00
2023-02-22T06:59:08.618Z,15.18
2023-02-22T07:05:13.020Z,14.68
2023-02-22T07:11:15.666Z,14.75
2023-02-22T07:17:17.464Z,15.13
2023-02-22T07:23:19.290Z,15.23
2023-02-22T07:29:22.498Z,15.07
2023-02-22T07:35:26.044Z,15.68
2023-02-22T07:41:27.835Z,15.18
2023-02-22T07:47:29.582Z,15.23
2023-02-22T07:53:33.567Z,14.82
2023-02-22T07:59:35.325Z,13.25
2023-02-22T08:05:39.147Z,13.90
2023-02-22T08:11:41.680Z,13.10
2023-02-22T08:17:43.442Z,13.30
2023-02-22T08:23:45.183Z,13.65
2023-02-22T08:29:47.969Z,13.20
2023-02-22T08:35:50.228Z,13.35
2023-02-22T08:41:52.016Z,15.32
2023-02-22T08:47:54.087Z,14.13
2023-02-22T08:53:55.896Z,13.73
2023-02-22T08:59:57.674Z,13.23
2023-02-22T09:05:59.577Z,14.40
2023-02-22T09:12:02.143Z,13.77
2023-02-22T09:18:06.205Z,12.15
2023-02-22T09:24:08.763Z,12.80
2023-02-22T09:30:25.495Z,12.50
2023-02-22T09:36:27.314Z,12.60
2023-02-22T09:42:34.495Z,12.18
2023-02-22T09:48:44.470Z,11.73
2023-02-22T09:54:51.980Z,12.70
2023-02-22T10:01:05.137Z,12.73
2023-02-22T10:07:15.835Z,12.70
2023-02-22T10:13:27.655Z,11.75
2023-02-22T10:19:44.187Z,11.23
2023-02-22T10:25:52.599Z,11.48
2023-02-22T10:31:59.926Z,11.88
2023-02-22T10:38:23.404Z,11.43
2023-02-22T10:44:25.177Z,11.50
2023-02-22T10:50:29.588Z,10.63
2023-02-22T10:56:31.364Z,10.48
2023-02-22T11:02:35.796Z,10.63
2023-02-22T11:08:38.148Z,10.32
2023-02-22T11:14:39.893Z,10.45
2023-02-22T11:20:41.779Z,10.00
2023-02-22T11:26:46.773Z,9.50
2023-02-22T11:32:54.555Z,8.52
2023-02-22T11:38:59.950Z,9.23
2023-02-22T11:45:21.541Z,9.10
2023-02-22T11:51:49.582Z,7.57
2023-02-22T11:58:08.326Z,6.82
2023-02-22T12:04:53.050Z,6.63
2023-02-22T12:11:19.462Z,6.97
2023-02-22T12:17:39.074Z,6.35
2023-02-22T12:23:55.956Z,5.85
2023-02-22T12:30:18.163Z,5.18
2023-02-22T12:36:24.914Z,5.15
2023-02-22T12:42:53.402Z,5.43
2023-02-22T12:55:25.270Z,4.70
2023-02-22T13:01:40.401Z,5.20
2023-02-22T13:08:02.464Z,4.97
2023-02-22T13:14:41.416Z,4.68
2023-02-22T13:20:51.270Z,5.13
2023-02-22T13:27:01.770Z,5.20
2023-02-22T13:33:28.720Z,4.95
2023-02-22T13:39:45.973Z,4.68
2023-02-22T13:46:00.167Z,4.73
2023-02-22T13:52:07.138Z,5.20
2023-02-22T13:58:12.247Z,4.20
2023-02-22T14:04:37.105Z,5.22
2023-02-22T14:10:45.330Z,5.00
2023-02-22T14:17:19.215Z,4.15
2023-02-22T14:23:31.423Z,5.03
2023-02-22T14:29:33.243Z,3.95
2023-02-22T14:35:49.952Z,4.57
2023-02-22T14:42:06.476Z,4.22
2023-02-22T14:48:16.244Z,4.65
2023-02-22T14:54:39.858Z,4.40
2023-02-22T15:00:45.869Z,4.43
2023-02-22T15:06:49.413Z,4.00
2023-02-22T15:13:10.608Z,4.53
2023-02-22T15:19:12.403Z,4.60
2023-02-22T15:25:14.273Z,4.95
2023-02-22T15:31:22.701Z,5.00
2023-02-22T15:37:25.819Z,4.90
2023-02-22T15:43:28.642Z,5.18
2023-02-22T15:49:35.588Z,4.68
2023-02-22T15:55:41.591Z,4.40
2023-02-22T16:01:45.817Z,4.93
2023-02-22T16:07:50.951Z,5.70
2023-02-22T16:13:54.177Z,6.13
2023-02-22T16:19:57.283Z,6.72
2023-02-22T16:26:05.305Z,6.95
2023-02-22T16:32:07.332Z,7.40
2023-02-22T16:38:16.894Z,7.80
2023-02-22T16:44:18.963Z,8.32
2023-02-22T16:50:22.044Z,7.85
2023-02-22T16:56:30.833Z,8.88
2023-02-22T17:02:32.907Z,8.57
2023-02-22T17:08:34.657Z,8.18
2023-02-22T17:14:36.781Z,8.90
2023-02-22T17:20:38.509Z,9.40
2023-02-22T17:26:41.394Z,9.45
2023-02-22T17:32:43.654Z,10.40
2023-02-22T17:38:45.409Z,11.02
2023-02-22T17:44:47.165Z,11.45
2023-02-22T17:50:51.837Z,11.07
2023-02-22T17:56:57.918Z,11.98
2023-02-22T18:03:25.421Z,12.18
2023-02-22T18:09:28.463Z,11.25
2023-02-22T18:15:35.522Z,12.90
2023-02-22T18:21:38.739Z,13.13
2023-02-22T18:27:44.727Z,13.55
2023-02-22T18:33:49.468Z,13.82
2023-02-22T18:39:51.721Z,14.05
2023-02-22T18:45:53.891Z,15.18
2023-02-22T18:51:55.850Z,14.70
2023-02-22T18:57:57.759Z,14.18
2023-02-22T19:04:00.763Z,15.30
2023-02-22T19:10:04.025Z,16.85
2023-02-22T19:16:08.852Z,17.48
2023-02-22T19:22:15.106Z,18.67
2023-02-22T19:28:17.270Z,18.02
2023-02-22T19:34:22.074Z,17.75
2023-02-22T19:40:24.947Z,18.50
2023-02-22T19:46:26.934Z,20.92
2023-02-22T19:52:29.014Z,21.27
2023-02-22T19:58:32.526Z,21.55
2023-02-22T20:04:36.382Z,22.40
2023-02-22T20:10:40.073Z,21.38
2023-02-22T20:16:41.875Z,21.95
2023-02-22T20:22:44.774Z,21.17
2023-02-22T20:28:46.863Z,21.88
2023-02-22T20:34:48.767Z,23.35
2023-02-22T20:40:50.526Z,23.50
2023-02-22T20:46:52.345Z,23.25
2023-02-22T20:52:54.169Z,25.33
2023-02-22T20:59:01.746Z,23.80
2023-02-22T21:05:03.991Z,22.73
2023-02-22T21:11:11.558Z,22.60
2023-02-22T21:17:13.569Z,25.08
2023-02-22T21:23:16.338Z,23.40
2023-02-22T21:29:22.035Z,23.13
2023-02-22T21:35:25.360Z,23.27
2023-02-22T21:41:31.237Z,23.90
2023-02-22T21:47:37.140Z,23.67
2023-02-22T21:53:39.072Z,24.00
2023-02-22T21:59:41.306Z,23.63
2023-02-22T22:05:46.133Z,25.23
2023-02-22T22:12:06.395Z,24.50
2023-02-22T22:18:08.452Z,24.02
2023-02-22T22:24:11.024Z,26.05
2023-02-22T22:30:13.290Z,25.98
2023-02-22T22:36:16.846Z,25.45
2023-02-22T22:42:18.824Z,26.98
2023-02-22T22:48:22.710Z,27.45
2023-02-22T22:54:24.584Z,27.45
2023-02-22T23:00:30.136Z,24.83
2023-02-22T23:06:34.724Z,26.05
2023-02-22T23:12:37.300Z,23.55
2023-02-22T23:18:43.159Z,25.80
2023-02-22T23:24:45.525Z,26.73
2023-02-22T23:30:47.381Z,26.50
2023-02-22T23:36:50.463Z,27.08
2023-02-22T23:42:55.890Z,27.73
2023-02-22T23:49:01.635Z,27.42
2023-02-22T23:55:05.549Z,28.80
